sensor_id;sensor_type;location;lat;lon;timestamp;P1;durP1;ratioP1;P2;durP2;ratioP2
79122;SDS011;68526;44.600;26.032;2024-02-28T00:00:11;27.00;;;15.45;;
79122;SDS011;68526;44.600;26.032;2024-02-28T00:00:28;28.50;;;15.40;;
79122;SDS011;68526;44.600;26.032;2024-02-28T00:00:44;29.20;;;15.68;;
79122;SDS011;68526;44.600;26.032;2024-02-28T00:01:01;28.90;;;16.20;;
79122;SDS011;68526;44.600;26.032;2024-02-28T00:01:17;29.42;;;16.27;;
79122;SDS011;68526;44.600;26.032;2024-02-28T00:01:33;26.55;;;15.52;;
79122;SDS011;68526;44.600;26.032;2024-02-28T00:01:49;27.02;;;15.52;;
79122;SDS011;68526;44.600;26.032;2024-02-28T00:02:05;26.20;;;15.25;;
79122;SDS011;68526;44.600;26.032;2024-02-28T00:02:21;27.23;;;15.30;;
79122;SDS011;68526;44.600;26.032;2024-02-28T00:02:37;29.55;;;15.65;;
79122;SDS011;68526;44.600;26.032;2024-02-28T00:02:54;28.15;;;15.68;;
79122;SDS011;68526;44.600;26.032;2024-02-28T00:03:10;25.67;;;15.55;;
79122;SDS011;68526;44.600;26.032;2024-02-28T00:03:26;26.20;;;15.30;;
79122;SDS011;68526;44.600;26.032;2024-02-28T00:03:42;26.10;;;15.23;;
79122;SDS011;68526;44.600;26.032;2024-02-28T00:03:58;24.42;;;15.07;;
79122;SDS011;68526;44.600;26.032;2024-02-28T00:04:14;27.58;;;15.50;;
79122;SDS011;68526;44.600;26.032;2024-02-28T00:04:30;29.63;;;15.75;;
79122;SDS011;68526;44.600;26.032;2024-02-28T00:04:47;27.98;;;14.98;;
79122;SDS011;68526;44.600;26.032;2024-02-28T00:05:04;27.25;;;15.13;;
79122;SDS011;68526;44.600;26.032;2024-02-28T00:05:20;26.30;;;15.32;;
79122;SDS011;68526;44.600;26.032;2024-02-28T00:05:36;29.92;;;15.52;;
79122;SDS011;68526;44.600;26.032;2024-02-28T00:05:52;31.98;;;15.77;;
79122;SDS011;68526;44.600;26.032;2024-02-28T00:06:08;29.63;;;15.77;;
79122;SDS011;68526;44.600;26.032;2024-02-28T00:06:25;30.33;;;16.20;;
79122;SDS011;68526;44.600;26.032;2024-02-28T00:06:41;30.70;;;16.13;;
79122;SDS011;68526;44.600;26.032;2024-02-28T00:06:57;31.58;;;15.77;;
79122;SDS011;68526;44.600;26.032;2024-02-28T00:07:13;30.13;;;15.63;;
79122;SDS011;68526;44.600;26.032;2024-02-28T00:07:29;27.55;;;15.45;;
79122;SDS011;68526;44.600;26.032;2024-02-28T00:07:45;26.85;;;15.60;;
79122;SDS011;68526;44.600;26.032;2024-02-28T00:08:02;27.57;;;15.67;;
79122;SDS011;68526;44.600;26.032;2024-02-28T00:08:19;26.85;;;15.75;;
79122;SDS011;68526;44.600;26.032;2024-02-28T00:08:36;26.67;;;15.77;;
79122;SDS011;68526;44.600;26.032;2024-02-28T00:08:52;25.90;;;15.15;;
79122;SDS011;68526;44.600;26.032;2024-02-28T00:09:10;27.77;;;15.48;;
79122;SDS011;68526;44.600;26.032;2024-02-28T00:09:26;27.13;;;15.50;;
79122;SDS011;68526;44.600;26.032;2024-02-28T00:09:43;31.63;;;15.95;;
79122;SDS011;68526;44.600;26.032;2024-02-28T00:09:58;32.72;;;16.20;;
79122;SDS011;68526;44.600;26.032;2024-02-28T00:10:15;26.38;;;15.52;;
79122;SDS011;68526;44.600;26.032;2024-02-28T00:10:32;24.25;;;15.05;;
79122;SDS011;68526;44.600;26.032;2024-02-28T00:10:48;24.48;;;15.05;;
79122;SDS011;68526;44.600;26.032;2024-02-28T00:11:04;28.27;;;15.48;;
79122;SDS011;68526;44.600;26.032;2024-02-28T00:11:20;29.63;;;15.40;;
79122;SDS011;68526;44.600;26.032;2024-02-28T00:11:36;25.63;;;14.88;;
79122;SDS011;68526;44.600;26.032;2024-02-28T00:11:56;26.38;;;15.43;;
79122;SDS011;68526;44.600;26.032;2024-02-28T00:12:12;30.60;;;15.80;;
79122;SDS011;68526;44.600;26.032;2024-02-28T00:12:30;28.45;;;15.68;;
79122;SDS011;68526;44.600;26.032;2024-02-28T00:12:46;30.40;;;15.90;;
79122;SDS011;68526;44.600;26.032;2024-02-28T00:13:02;29.60;;;15.70;;
79122;SDS011;68526;44.600;26.032;2024-02-28T00:13:18;26.92;;;16.23;;
79122;SDS011;68526;44.600;26.032;2024-02-28T00:13:35;28.63;;;15.85;;
79122;SDS011;68526;44.600;26.032;2024-02-28T00:13:51;28.37;;;15.70;;
79122;SDS011;68526;44.600;26.032;2024-02-28T00:14:08;26.50;;;15.57;;
79122;SDS011;68526;44.600;26.032;2024-02-28T00:14:25;26.02;;;15.13;;
79122;SDS011;68526;44.600;26.032;2024-02-28T00:14:41;25.80;;;14.82;;
79122;SDS011;68526;44.600;26.032;2024-02-28T00:14:57;26.52;;;14.90;;
79122;SDS011;68526;44.600;26.032;2024-02-28T00:15:14;28.05;;;15.38;;
79122;SDS011;68526;44.600;26.032;2024-02-28T00:15:30;28.35;;;15.68;;
79122;SDS011;68526;44.600;26.032;2024-02-28T00:15:46;27.58;;;15.85;;
79122;SDS011;68526;44.600;26.032;2024-02-28T00:16:03;24.35;;;15.52;;
79122;SDS011;68526;44.600;26.032;2024-02-28T00:16:19;25.20;;;15.40;;
79122;SDS011;68526;44.600;26.032;2024-02-28T00:16:35;26.33;;;15.63;;
79122;SDS011;68526;44.600;26.032;2024-02-28T00:16:51;25.75;;;15.77;;
79122;SDS011;68526;44.600;26.032;2024-02-28T00:17:07;24.30;;;15.00;;
79122;SDS011;68526;44.600;26.032;2024-02-28T00:17:23;24.08;;;14.80;;
79122;SDS011;68526;44.600;26.032;2024-02-28T00:17:40;26.42;;;15.93;;
79122;SDS011;68526;44.600;26.032;2024-02-28T00:17:56;28.15;;;16.05;;
79122;SDS011;68526;44.600;26.032;2024-02-28T00:18:12;26.00;;;15.23;;
79122;SDS011;68526;44.600;26.032;2024-02-28T00:18:29;26.88;;;15.32;;
79122;SDS011;68526;44.600;26.032;2024-02-28T00:18:46;27.92;;;15.07;;
79122;SDS011;68526;44.600;26.032;2024-02-28T00:19:02;28.15;;;15.43;;
79122;SDS011;68526;44.600;26.032;2024-02-28T00:19:18;28.25;;;15.90;;
79122;SDS011;68526;44.600;26.032;2024-02-28T00:19:35;27.88;;;16.00;;
79122;SDS011;68526;44.600;26.032;2024-02-28T00:19:51;27.33;;;15.80;;
79122;SDS011;68526;44.600;26.032;2024-02-28T00:20:07;25.77;;;15.70;;
79122;SDS011;68526;44.600;26.032;2024-02-28T00:20:25;27.67;;;15.95;;
79122;SDS011;68526;44.600;26.032;2024-02-28T00:20:43;29.00;;;16.20;;
79122;SDS011;68526;44.600;26.032;2024-02-28T00:21:00;29.30;;;15.98;;
79122;SDS011;68526;44.600;26.032;2024-02-28T00:21:16;30.83;;;16.42;;
79122;SDS011;68526;44.600;26.032;2024-02-28T00:21:32;28.80;;;15.73;;
79122;SDS011;68526;44.600;26.032;2024-02-28T00:21:48;26.70;;;15.50;;
79122;SDS011;68526;44.600;26.032;2024-02-28T00:22:04;26.63;;;15.90;;
79122;SDS011;68526;44.600;26.032;2024-02-28T00:22:21;27.00;;;16.48;;
79122;SDS011;68526;44.600;26.032;2024-02-28T00:22:37;29.15;;;16.73;;
79122;SDS011;68526;44.600;26.032;2024-02-28T00:22:53;30.42;;;16.75;;
79122;SDS011;68526;44.600;26.032;2024-02-28T00:23:09;31.10;;;16.48;;
79122;SDS011;68526;44.600;26.032;2024-02-28T00:23:25;31.00;;;16.00;;
79122;SDS011;68526;44.600;26.032;2024-02-28T00:23:41;30.58;;;16.40;;
79122;SDS011;68526;44.600;26.032;2024-02-28T00:23:58;31.70;;;16.60;;
79122;SDS011;68526;44.600;26.032;2024-02-28T00:24:14;29.88;;;16.25;;
79122;SDS011;68526;44.600;26.032;2024-02-28T00:24:30;28.35;;;16.48;;
79122;SDS011;68526;44.600;26.032;2024-02-28T00:24:46;27.10;;;16.05;;
79122;SDS011;68526;44.600;26.032;2024-02-28T00:25:02;28.35;;;16.00;;
79122;SDS011;68526;44.600;26.032;2024-02-28T00:25:18;30.40;;;16.15;;
79122;SDS011;68526;44.600;26.032;2024-02-28T00:25:35;27.80;;;15.77;;
79122;SDS011;68526;44.600;26.032;2024-02-28T00:25:51;26.70;;;15.63;;
79122;SDS011;68526;44.600;26.032;2024-02-28T00:26:07;29.50;;;15.98;;
79122;SDS011;68526;44.600;26.032;2024-02-28T00:26:23;31.15;;;16.80;;
79122;SDS011;68526;44.600;26.032;2024-02-28T00:26:41;28.60;;;16.58;;
79122;SDS011;68526;44.600;26.032;2024-02-28T00:26:57;28.13;;;16.05;;
79122;SDS011;68526;44.600;26.032;2024-02-28T00:27:13;25.08;;;15.02;;
79122;SDS011;68526;44.600;26.032;2024-02-28T00:27:29;25.47;;;14.80;;
79122;SDS011;68526;44.600;26.032;2024-02-28T00:27:46;31.38;;;16.27;;
79122;SDS011;68526;44.600;26.032;2024-02-28T00:28:02;30.75;;;15.85;;
79122;SDS011;68526;44.600;26.032;2024-02-28T00:28:18;28.08;;;15.43;;
79122;SDS011;68526;44.600;26.032;2024-02-28T00:28:34;26.67;;;15.93;;
79122;SDS011;68526;44.600;26.032;2024-02-28T00:28:51;25.42;;;15.85;;
79122;SDS011;68526;44.600;26.032;2024-02-28T00:29:08;28.13;;;15.77;;
79122;SDS011;68526;44.600;26.032;2024-02-28T00:29:24;28.48;;;14.98;;
79122;SDS011;68526;44.600;26.032;2024-02-28T00:29:41;26.08;;;14.77;;
79122;SDS011;68526;44.600;26.032;2024-02-28T00:29:57;26.60;;;15.23;;
79122;SDS011;68526;44.600;26.032;2024-02-28T00:30:15;28.33;;;15.60;;
79122;SDS011;68526;44.600;26.032;2024-02-28T00:30:31;29.75;;;15.32;;
79122;SDS011;68526;44.600;26.032;2024-02-28T00:30:48;29.95;;;15.15;;
79122;SDS011;68526;44.600;26.032;2024-02-28T00:31:04;28.52;;;15.13;;
79122;SDS011;68526;44.600;26.032;2024-02-28T00:31:20;27.38;;;14.98;;
79122;SDS011;68526;44.600;26.032;2024-02-28T00:31:37;26.70;;;15.20;;
79122;SDS011;68526;44.600;26.032;2024-02-28T00:31:53;28.42;;;15.75;;
79122;SDS011;68526;44.600;26.032;2024-02-28T00:32:09;30.33;;;16.23;;
79122;SDS011;68526;44.600;26.032;2024-02-28T00:32:25;30.15;;;16.17;;
79122;SDS011;68526;44.600;26.032;2024-02-28T00:32:41;28.67;;;15.95;;
79122;SDS011;68526;44.600;26.032;2024-02-28T00:32:57;31.15;;;16.13;;
79122;SDS011;68526;44.600;26.032;2024-02-28T00:33:14;32.92;;;15.80;;
79122;SDS011;68526;44.600;26.032;2024-02-28T00:33:31;27.92;;;15.45;;
79122;SDS011;68526;44.600;26.032;2024-02-28T00:33:47;27.25;;;15.02;;
79122;SDS011;68526;44.600;26.032;2024-02-28T00:34:03;26.75;;;15.68;;
79122;SDS011;68526;44.600;26.032;2024-02-28T00:34:19;27.92;;;15.93;;
79122;SDS011;68526;44.600;26.032;2024-02-28T00:34:35;29.00;;;15.75;;
79122;SDS011;68526;44.600;26.032;2024-02-28T00:34:51;26.48;;;15.57;;
79122;SDS011;68526;44.600;26.032;2024-02-28T00:35:07;26.73;;;15.70;;
79122;SDS011;68526;44.600;26.032;2024-02-28T00:35:23;27.85;;;15.80;;
79122;SDS011;68526;44.600;26.032;2024-02-28T00:35:40;26.48;;;14.93;;
79122;SDS011;68526;44.600;26.032;2024-02-28T00:35:56;26.85;;;14.85;;
79122;SDS011;68526;44.600;26.032;2024-02-28T00:36:13;29.02;;;15.30;;
79122;SDS011;68526;44.600;26.032;2024-02-28T00:36:30;29.95;;;15.27;;
79122;SDS011;68526;44.600;26.032;2024-02-28T00:36:46;30.05;;;15.00;;
79122;SDS011;68526;44.600;26.032;2024-02-28T00:37:02;32.22;;;14.93;;
79122;SDS011;68526;44.600;26.032;2024-02-28T00:37:18;31.52;;;15.82;;
79122;SDS011;68526;44.600;26.032;2024-02-28T00:37:35;31.20;;;16.00;;
79122;SDS011;68526;44.600;26.032;2024-02-28T00:37:51;26.60;;;15.27;;
79122;SDS011;68526;44.600;26.032;2024-02-28T00:38:07;25.55;;;14.82;;
79122;SDS011;68526;44.600;26.032;2024-02-28T00:38:23;27.73;;;15.13;;
79122;SDS011;68526;44.600;26.032;2024-02-28T00:38:39;27.63;;;15.32;;
79122;SDS011;68526;44.600;26.032;2024-02-28T00:38:55;26.08;;;15.43;;
79122;SDS011;68526;44.600;26.032;2024-02-28T00:39:11;25.63;;;15.20;;
79122;SDS011;68526;44.600;26.032;2024-02-28T00:39:27;25.20;;;14.65;;
79122;SDS011;68526;44.600;26.032;2024-02-28T00:39:44;26.87;;;15.13;;
79122;SDS011;68526;44.600;26.032;2024-02-28T00:40:00;28.02;;;15.27;;
79122;SDS011;68526;44.600;26.032;2024-02-28T00:40:16;26.13;;;14.88;;
79122;SDS011;68526;44.600;26.032;2024-02-28T00:40:32;24.50;;;15.05;;
79122;SDS011;68526;44.600;26.032;2024-02-28T00:40:49;22.20;;;14.93;;
79122;SDS011;68526;44.600;26.032;2024-02-28T00:41:05;24.15;;;15.35;;
79122;SDS011;68526;44.600;26.032;2024-02-28T00:41:21;24.93;;;15.50;;
79122;SDS011;68526;44.600;26.032;2024-02-28T00:41:37;25.23;;;15.65;;
79122;SDS011;68526;44.600;26.032;2024-02-28T00:41:54;26.95;;;15.25;;
79122;SDS011;68526;44.600;26.032;2024-02-28T00:42:10;26.73;;;14.90;;
79122;SDS011;68526;44.600;26.032;2024-02-28T00:42:26;27.52;;;14.55;;
79122;SDS011;68526;44.600;26.032;2024-02-28T00:42:42;29.40;;;14.80;;
79122;SDS011;68526;44.600;26.032;2024-02-28T00:42:58;27.85;;;15.35;;
79122;SDS011;68526;44.600;26.032;2024-02-28T00:43:14;25.15;;;15.20;;
79122;SDS011;68526;44.600;26.032;2024-02-28T00:43:30;25.23;;;15.23;;
79122;SDS011;68526;44.600;26.032;2024-02-28T00:43:46;25.58;;;14.77;;
79122;SDS011;68526;44.600;26.032;2024-02-28T00:44:03;26.73;;;14.82;;
79122;SDS011;68526;44.600;26.032;2024-02-28T00:44:19;28.13;;;15.10;;
79122;SDS011;68526;44.600;26.032;2024-02-28T00:44:35;28.63;;;15.45;;
79122;SDS011;68526;44.600;26.032;2024-02-28T00:44:51;27.40;;;15.75;;
79122;SDS011;68526;44.600;26.032;2024-02-28T00:45:08;28.23;;;15.35;;
79122;SDS011;68526;44.600;26.032;2024-02-28T00:45:26;31.48;;;15.60;;
79122;SDS011;68526;44.600;26.032;2024-02-28T00:45:42;27.48;;;15.20;;
79122;SDS011;68526;44.600;26.032;2024-02-28T00:45:59;24.88;;;15.20;;
79122;SDS011;68526;44.600;26.032;2024-02-28T00:46:16;25.42;;;15.07;;
79122;SDS011;68526;44.600;26.032;2024-02-28T00:46:32;25.63;;;15.02;;
79122;SDS011;68526;44.600;26.032;2024-02-28T00:46:48;25.10;;;14.97;;
79122;SDS011;68526;44.600;26.032;2024-02-28T00:47:04;25.33;;;14.98;;
79122;SDS011;68526;44.600;26.032;2024-02-28T00:47:20;24.80;;;15.05;;
79122;SDS011;68526;44.600;26.032;2024-02-28T00:47:36;25.60;;;15.20;;
79122;SDS011;68526;44.600;26.032;2024-02-28T00:47:53;27.00;;;14.80;;
79122;SDS011;68526;44.600;26.032;2024-02-28T00:48:10;25.95;;;14.57;;
79122;SDS011;68526;44.600;26.032;2024-02-28T00:48:27;26.65;;;15.05;;
79122;SDS011;68526;44.600;26.032;2024-02-28T00:48:43;26.38;;;15.27;;
79122;SDS011;68526;44.600;26.032;2024-02-28T00:48:59;25.05;;;14.73;;
79122;SDS011;68526;44.600;26.032;2024-02-28T00:49:15;25.55;;;14.25;;
79122;SDS011;68526;44.600;26.032;2024-02-28T00:49:31;27.52;;;14.52;;
79122;SDS011;68526;44.600;26.032;2024-02-28T00:49:47;29.70;;;15.70;;
79122;SDS011;68526;44.600;26.032;2024-02-28T00:50:03;27.42;;;15.10;;
79122;SDS011;68526;44.600;26.032;2024-02-28T00:50:20;26.17;;;14.35;;
79122;SDS011;68526;44.600;26.032;2024-02-28T00:50:37;25.55;;;14.80;;
79122;SDS011;68526;44.600;26.032;2024-02-28T00:50:53;25.77;;;14.93;;
79122;SDS011;68526;44.600;26.032;2024-02-28T00:51:09;26.80;;;15.10;;
79122;SDS011;68526;44.600;26.032;2024-02-28T00:51:25;27.48;;;15.35;;
79122;SDS011;68526;44.600;26.032;2024-02-28T00:51:41;24.90;;;15.07;;
79122;SDS011;68526;44.600;26.032;2024-02-28T00:51:57;26.67;;;15.45;;
79122;SDS011;68526;44.600;26.032;2024-02-28T00:52:13;27.63;;;15.23;;
79122;SDS011;68526;44.600;26.032;2024-02-28T00:52:30;26.60;;;14.80;;
79122;SDS011;68526;44.600;26.032;2024-02-28T00:52:47;28.60;;;14.82;;
79122;SDS011;68526;44.600;26.032;2024-02-28T00:53:03;27.08;;;15.20;;
79122;SDS011;68526;44.600;26.032;2024-02-28T00:53:19;27.42;;;15.63;;
79122;SDS011;68526;44.600;26.032;2024-02-28T00:53:36;29.25;;;15.20;;
79122;SDS011;68526;44.600;26.032;2024-02-28T00:53:52;26.75;;;14.80;;
79122;SDS011;68526;44.600;26.032;2024-02-28T00:54:07;25.05;;;14.75;;
79122;SDS011;68526;44.600;26.032;2024-02-28T00:54:23;24.77;;;14.88;;
79122;SDS011;68526;44.600;26.032;2024-02-28T00:54:41;25.70;;;15.27;;
79122;SDS011;68526;44.600;26.032;2024-02-28T00:54:57;28.25;;;15.55;;
79122;SDS011;68526;44.600;26.032;2024-02-28T00:55:13;26.27;;;15.43;;
79122;SDS011;68526;44.600;26.032;2024-02-28T00:55:29;25.42;;;15.27;;
79122;SDS011;68526;44.600;26.032;2024-02-28T00:55:45;26.48;;;15.20;;
79122;SDS011;68526;44.600;26.032;2024-02-28T00:56:01;26.23;;;15.35;;
79122;SDS011;68526;44.600;26.032;2024-02-28T00:56:17;23.83;;;14.60;;
79122;SDS011;68526;44.600;26.032;2024-02-28T00:56:33;22.90;;;14.43;;
79122;SDS011;68526;44.600;26.032;2024-02-28T00:56:50;23.80;;;14.80;;
79122;SDS011;68526;44.600;26.032;2024-02-28T00:57:06;26.00;;;14.77;;
79122;SDS011;68526;44.600;26.032;2024-02-28T00:57:22;28.10;;;14.90;;
79122;SDS011;68526;44.600;26.032;2024-02-28T00:57:38;25.70;;;14.60;;
79122;SDS011;68526;44.600;26.032;2024-02-28T00:57:54;23.85;;;14.35;;
79122;SDS011;68526;44.600;26.032;2024-02-28T00:58:11;24.38;;;14.20;;
79122;SDS011;68526;44.600;26.032;2024-02-28T00:58:27;26.30;;;14.52;;
79122;SDS011;68526;44.600;26.032;2024-02-28T00:58:45;25.33;;;14.50;;
79122;SDS011;68526;44.600;26.032;2024-02-28T00:59:00;24.10;;;13.82;;
79122;SDS011;68526;44.600;26.032;2024-02-28T00:59:16;25.27;;;13.90;;
79122;SDS011;68526;44.600;26.032;2024-02-28T00:59:33;25.23;;;14.23;;
79122;SDS011;68526;44.600;26.032;2024-02-28T00:59:48;24.15;;;13.95;;
79122;SDS011;68526;44.600;26.032;2024-02-28T01:00:06;24.70;;;14.02;;
79122;SDS011;68526;44.600;26.032;2024-02-28T01:00:26;29.27;;;14.80;;
79122;SDS011;68526;44.600;26.032;2024-02-28T01:00:42;29.70;;;14.50;;
79122;SDS011;68526;44.600;26.032;2024-02-28T01:00:58;24.63;;;13.73;;
79122;SDS011;68526;44.600;26.032;2024-02-28T01:01:14;23.90;;;13.93;;
79122;SDS011;68526;44.600;26.032;2024-02-28T01:01:30;25.90;;;14.65;;
79122;SDS011;68526;44.600;26.032;2024-02-28T01:01:47;26.17;;;15.00;;
79122;SDS011;68526;44.600;26.032;2024-02-28T01:02:04;25.88;;;14.75;;
79122;SDS011;68526;44.600;26.032;2024-02-28T01:02:21;26.95;;;14.15;;
79122;SDS011;68526;44.600;26.032;2024-02-28T01:02:37;26.60;;;14.35;;
79122;SDS011;68526;44.600;26.032;2024-02-28T01:02:52;26.30;;;14.30;;
79122;SDS011;68526;44.600;26.032;2024-02-28T01:03:08;24.48;;;14.07;;
79122;SDS011;68526;44.600;26.032;2024-02-28T01:03:26;24.85;;;14.43;;
79122;SDS011;68526;44.600;26.032;2024-02-28T01:03:42;28.27;;;14.75;;
79122;SDS011;68526;44.600;26.032;2024-02-28T01:03:58;27.03;;;14.57;;
79122;SDS011;68526;44.600;26.032;2024-02-28T01:04:15;24.08;;;14.13;;
79122;SDS011;68526;44.600;26.032;2024-02-28T01:04:31;23.30;;;13.90;;
79122;SDS011;68526;44.600;26.032;2024-02-28T01:04:47;23.63;;;14.00;;
79122;SDS011;68526;44.600;26.032;2024-02-28T01:05:03;25.02;;;13.90;;
79122;SDS011;68526;44.600;26.032;2024-02-28T01:05:19;28.25;;;14.27;;
79122;SDS011;68526;44.600;26.032;2024-02-28T01:05:35;27.00;;;14.70;;
79122;SDS011;68526;44.600;26.032;2024-02-28T01:05:51;25.48;;;14.13;;
79122;SDS011;68526;44.600;26.032;2024-02-28T01:06:08;27.08;;;14.60;;
79122;SDS011;68526;44.600;26.032;2024-02-28T01:06:24;28.00;;;14.90;;
79122;SDS011;68526;44.600;26.032;2024-02-28T01:06:40;22.30;;;13.68;;
79122;SDS011;68526;44.600;26.032;2024-02-28T01:06:56;21.40;;;13.50;;
79122;SDS011;68526;44.600;26.032;2024-02-28T01:07:12;27.00;;;14.20;;
79122;SDS011;68526;44.600;26.032;2024-02-28T01:07:28;29.63;;;14.73;;
79122;SDS011;68526;44.600;26.032;2024-02-28T01:07:44;27.27;;;14.73;;
79122;SDS011;68526;44.600;26.032;2024-02-28T01:08:02;25.20;;;14.07;;
79122;SDS011;68526;44.600;26.032;2024-02-28T01:08:18;25.05;;;13.93;;
79122;SDS011;68526;44.600;26.032;2024-02-28T01:08:34;25.20;;;14.23;;
79122;SDS011;68526;44.600;26.032;2024-02-28T01:08:50;24.85;;;14.00;;
79122;SDS011;68526;44.600;26.032;2024-02-28T01:09:06;28.15;;;14.52;;
79122;SDS011;68526;44.600;26.032;2024-02-28T01:09:22;28.27;;;14.67;;
79122;SDS011;68526;44.600;26.032;2024-02-28T01:09:38;25.40;;;14.40;;
79122;SDS011;68526;44.600;26.032;2024-02-28T01:09:55;27.53;;;14.83;;
79122;SDS011;68526;44.600;26.032;2024-02-28T01:10:11;28.27;;;14.43;;
79122;SDS011;68526;44.600;26.032;2024-02-28T01:10:27;27.23;;;14.30;;
79122;SDS011;68526;44.600;26.032;2024-02-28T01:10:43;24.85;;;14.38;;
79122;SDS011;68526;44.600;26.032;2024-02-28T01:10:59;24.13;;;13.43;;
79122;SDS011;68526;44.600;26.032;2024-02-28T01:11:15;27.33;;;13.50;;
79122;SDS011;68526;44.600;26.032;2024-02-28T01:11:31;27.08;;;14.35;;
79122;SDS011;68526;44.600;26.032;2024-02-28T01:11:47;26.58;;;14.43;;
79122;SDS011;68526;44.600;26.032;2024-02-28T01:12:04;24.42;;;13.48;;
79122;SDS011;68526;44.600;26.032;2024-02-28T01:12:20;25.13;;;13.63;;
79122;SDS011;68526;44.600;26.032;2024-02-28T01:12:36;24.02;;;13.40;;
79122;SDS011;68526;44.600;26.032;2024-02-28T01:12:52;23.48;;;13.90;;
79122;SDS011;68526;44.600;26.032;2024-02-28T01:13:08;25.92;;;14.82;;
79122;SDS011;68526;44.600;26.032;2024-02-28T01:13:24;24.63;;;14.35;;
79122;SDS011;68526;44.600;26.032;2024-02-28T01:13:40;24.85;;;14.07;;
79122;SDS011;68526;44.600;26.032;2024-02-28T01:13:57;26.42;;;14.30;;
79122;SDS011;68526;44.600;26.032;2024-02-28T01:14:13;23.50;;;14.02;;
79122;SDS011;68526;44.600;26.032;2024-02-28T01:14:29;23.58;;;13.80;;
79122;SDS011;68526;44.600;26.032;2024-02-28T01:14:45;25.70;;;14.13;;
79122;SDS011;68526;44.600;26.032;2024-02-28T01:15:01;28.15;;;14.27;;
79122;SDS011;68526;44.600;26.032;2024-02-28T01:15:18;27.65;;;14.15;;
79122;SDS011;68526;44.600;26.032;2024-02-28T01:15:36;24.92;;;13.85;;
79122;SDS011;68526;44.600;26.032;2024-02-28T01:15:52;23.70;;;13.77;;
79122;SDS011;68526;44.600;26.032;2024-02-28T01:16:09;23.73;;;13.70;;
79122;SDS011;68526;44.600;26.032;2024-02-28T01:16:25;25.15;;;13.80;;
79122;SDS011;68526;44.600;26.032;2024-02-28T01:16:41;24.20;;;13.55;;
79122;SDS011;68526;44.600;26.032;2024-02-28T01:16:57;24.92;;;13.85;;
79122;SDS011;68526;44.600;26.032;2024-02-28T01:17:13;22.08;;;13.70;;
79122;SDS011;68526;44.600;26.032;2024-02-28T01:17:29;21.85;;;13.25;;
79122;SDS011;68526;44.600;26.032;2024-02-28T01:17:45;24.45;;;13.68;;
79122;SDS011;68526;44.600;26.032;2024-02-28T01:18:02;26.30;;;14.25;;
79122;SDS011;68526;44.600;26.032;2024-02-28T01:18:19;24.50;;;13.98;;
79122;SDS011;68526;44.600;26.032;2024-02-28T01:18:34;25.00;;;13.40;;
79122;SDS011;68526;44.600;26.032;2024-02-28T01:18:51;26.63;;;13.63;;
79122;SDS011;68526;44.600;26.032;2024-02-28T01:19:06;25.63;;;13.65;;
79122;SDS011;68526;44.600;26.032;2024-02-28T01:19:22;24.00;;;12.98;;
79122;SDS011;68526;44.600;26.032;2024-02-28T01:19:39;23.42;;;13.02;;
79122;SDS011;68526;44.600;26.032;2024-02-28T01:19:55;22.38;;;13.10;;
79122;SDS011;68526;44.600;26.032;2024-02-28T01:20:11;21.85;;;13.30;;
79122;SDS011;68526;44.600;26.032;2024-02-28T01:20:27;22.60;;;13.68;;
79122;SDS011;68526;44.600;26.032;2024-02-28T01:20:44;21.90;;;13.85;;
79122;SDS011;68526;44.600;26.032;2024-02-28T01:21:00;22.80;;;13.93;;
79122;SDS011;68526;44.600;26.032;2024-02-28T01:21:16;22.88;;;13.27;;
79122;SDS011;68526;44.600;26.032;2024-02-28T01:21:32;22.83;;;13.18;;
79122;SDS011;68526;44.600;26.032;2024-02-28T01:21:48;23.33;;;13.63;;
79122;SDS011;68526;44.600;26.032;2024-02-28T01:22:04;25.10;;;14.35;;
79122;SDS011;68526;44.600;26.032;2024-02-28T01:22:20;24.95;;;14.32;;
79122;SDS011;68526;44.600;26.032;2024-02-28T01:22:36;22.90;;;14.18;;
79122;SDS011;68526;44.600;26.032;2024-02-28T01:22:53;27.02;;;14.32;;
79122;SDS011;68526;44.600;26.032;2024-02-28T01:23:09;27.73;;;13.60;;
79122;SDS011;68526;44.600;26.032;2024-02-28T01:23:25;24.95;;;13.35;;
79122;SDS011;68526;44.600;26.032;2024-02-28T01:23:41;23.42;;;13.82;;
79122;SDS011;68526;44.600;26.032;2024-02-28T01:23:57;23.30;;;13.98;;
79122;SDS011;68526;44.600;26.032;2024-02-28T01:24:13;24.70;;;14.15;;
79122;SDS011;68526;44.600;26.032;2024-02-28T01:24:29;24.87;;;13.73;;
79122;SDS011;68526;44.600;26.032;2024-02-28T01:24:48;22.90;;;13.10;;
79122;SDS011;68526;44.600;26.032;2024-02-28T01:25:05;23.17;;;13.43;;
79122;SDS011;68526;44.600;26.032;2024-02-28T01:25:21;23.08;;;13.57;;
79122;SDS011;68526;44.600;26.032;2024-02-28T01:25:37;24.75;;;13.88;;
79122;SDS011;68526;44.600;26.032;2024-02-28T01:25:53;25.42;;;14.18;;
79122;SDS011;68526;44.600;26.032;2024-02-28T01:26:09;26.13;;;14.43;;
79122;SDS011;68526;44.600;26.032;2024-02-28T01:26:25;24.75;;;14.05;;
79122;SDS011;68526;44.600;26.032;2024-02-28T01:26:41;22.35;;;13.38;;
79122;SDS011;68526;44.600;26.032;2024-02-28T01:26:58;21.90;;;13.30;;
79122;SDS011;68526;44.600;26.032;2024-02-28T01:27:14;23.20;;;13.32;;
79122;SDS011;68526;44.600;26.032;2024-02-28T01:27:30;24.05;;;13.35;;
79122;SDS011;68526;44.600;26.032;2024-02-28T01:27:46;22.67;;;13.18;;
79122;SDS011;68526;44.600;26.032;2024-02-28T01:28:03;21.02;;;13.27;;
79122;SDS011;68526;44.600;26.032;2024-02-28T01:28:20;21.15;;;13.10;;
79122;SDS011;68526;44.600;26.032;2024-02-28T01:28:36;24.23;;;13.30;;
79122;SDS011;68526;44.600;26.032;2024-02-28T01:28:52;24.80;;;13.23;;
79122;SDS011;68526;44.600;26.032;2024-02-28T01:29:09;23.65;;;14.40;;
79122;SDS011;68526;44.600;26.032;2024-02-28T01:29:25;23.33;;;13.90;;
79122;SDS011;68526;44.600;26.032;2024-02-28T01:29:41;24.77;;;13.77;;
79122;SDS011;68526;44.600;26.032;2024-02-28T01:29:58;25.02;;;13.45;;
79122;SDS011;68526;44.600;26.032;2024-02-28T01:30:14;23.98;;;12.82;;
79122;SDS011;68526;44.600;26.032;2024-02-28T01:30:30;21.38;;;12.63;;
79122;SDS011;68526;44.600;26.032;2024-02-28T01:30:47;20.58;;;13.10;;
79122;SDS011;68526;44.600;26.032;2024-02-28T01:31:03;22.50;;;13.38;;
79122;SDS011;68526;44.600;26.032;2024-02-28T01:31:21;20.43;;;12.47;;
79122;SDS011;68526;44.600;26.032;2024-02-28T01:31:38;20.48;;;12.98;;
79122;SDS011;68526;44.600;26.032;2024-02-28T01:31:54;19.37;;;13.17;;
79122;SDS011;68526;44.600;26.032;2024-02-28T01:32:09;19.75;;;12.73;;
79122;SDS011;68526;44.600;26.032;2024-02-28T01:32:25;21.67;;;12.90;;
79122;SDS011;68526;44.600;26.032;2024-02-28T01:32:41;21.83;;;13.15;;
79122;SDS011;68526;44.600;26.032;2024-02-28T01:32:57;20.10;;;12.90;;
79122;SDS011;68526;44.600;26.032;2024-02-28T01:33:13;21.00;;;13.23;;
79122;SDS011;68526;44.600;26.032;2024-02-28T01:33:30;21.85;;;13.15;;
79122;SDS011;68526;44.600;26.032;2024-02-28T01:33:47;22.13;;;12.43;;
79122;SDS011;68526;44.600;26.032;2024-02-28T01:34:03;21.58;;;11.93;;